Whitleys Peak, Santa Catalina Island Weather observations

Data are for 10 minute period ending at time listed.
 Day   Time   Solar   Ave.   Ave.  Ave.  Vector    Max.   Stn.    Total
  of    of     Rad.   Air    Rel.  Wind   Wind     Wind   Baro.  Precip.
Year   Day            Temp.  Hum.  Speed  Dir.     Gust   Pres.         
2015   (PST)   W/m2    F      %     mph   deg.      mph    mb.     in.  
------------------------------------------------------------------------
  60   11:50  312.0    52   86.2    11     94.6    16.7    999.0   0.00  
  60   12:00  233.0    51   88.4    11    107.6    15.5    999.0   0.00  
  60   12:10  291.0    52   87.5     8    112.0    13.1    999.0   0.00  
  60   12:20  426.0    53   86.3     7    115.3    13.1    999.0   0.00  
  60   12:30  500.0    53   84.3    10    100.3    15.5    999.0   0.00  
  60   12:40  405.0    52   86.2    10     91.7    14.9    999.0   0.00  
  60   12:50  610.0    52   85.8    12     85.4    17.3    999.0   0.00  
  60   13:00  719.0    54   84.1    12     91.1    15.5    999.0   0.00  
  60   13:10  616.0    54   80.7    12     96.0    15.5    999.0   0.00  
  60   13:20  414.0    53   80.7    10     92.7    14.3    999.0   0.00  
  60   13:30  445.0    53   80.2     8     94.5    11.9    999.0   0.00  
  60   13:40  226.0    53   81.1     8    105.5    11.9    999.0   0.00  
  60   13:50  280.0    53   81.8    10     95.7    14.3    999.0   0.00  
  60   14:00  293.0    53   81.4     8    105.4    13.1    999.0   0.00  
  60   14:10  494.0    54   82.5     9    101.8    12.5    999.0   0.00  
  60   14:20  358.0    53   85.5    10     91.1    16.1    999.0   0.00  
  60   14:30  425.0    53   85.1    11    104.0    15.5    999.0   0.00  
  60   14:40  635.0    54   84.2     8    107.9    14.3    999.0   0.00  
  60   14:50  185.0    54   83.1     5    118.5    10.2    999.0   0.00  
  60   15:00  344.0    53   85.3     8    121.0    13.1    999.0   0.00  
  60   15:10  405.0    54   83.4    10    115.3    13.7    999.0   0.00  
  60   15:20  265.0    53   85.1     8    118.7    13.7    999.0   0.00  
  60   15:30  210.0    53   86.7     8    128.0    13.7    999.0   0.00  
  60   15:40  134.0    52   88.2     7    125.0    13.1    999.0   0.00  
  60   15:50  132.0    52   89.2    10    113.9    14.3    999.0   0.00  
  60   16:00   50.0    51   90.1     9    104.1    14.3    999.0   0.00  
  60   16:10  128.0    50   90.7    10     95.0    13.1    999.0   0.00  
  60   16:20  310.0    52   89.1     8    119.2    14.9    999.0   0.00  
  60   16:30  189.0    51   89.5     8    120.2    13.7    999.0   0.00  
  60   16:40  187.0    52   88.5     6    121.4    11.3    999.0   0.00  
  60   16:50   79.0    51   88.1     7    120.4    14.3    999.0   0.00  
  60   17:00   73.0    51   88.7     6    111.7    11.3    999.0   0.00  
  60   17:10   71.0    50   89.1     7    110.7    10.2    999.0   0.00  
  60   17:20   75.0    50   89.5     9    112.2    13.7    999.0   0.00  
  60   17:30   29.0    50   90.3     7    110.5    11.9    999.0   0.00  
  60   17:40   18.0    50   91.0     6    116.6    10.2    999.0   0.00  
  60   17:50    9.0    50   91.6     5    122.2    10.2    999.0   0.00  
  60   18:00    1.0    49   92.2     5    111.3     8.4    999.0   0.00  
  60   18:10    0.0    49   92.8     5    116.6     9.0    999.0   0.00  
  60   18:20    0.0    48   93.0     8    118.1    13.1    999.0   0.00  
  60   18:30    0.0    48   92.7    10    120.2    13.7    999.0   0.00  
  60   18:40    0.0    48   92.4     7    116.8    10.8    999.0   0.00  
  60   18:50    0.0    49   92.9     9    116.0    11.9    999.0   0.00  
  60   19:00    0.0    49   93.3    10    118.7    14.9    999.0   0.00  
  60   19:10    0.0    49   93.4     8    115.1    12.5    999.0   0.00  
  60   19:20    0.0    49   93.4    10    122.2    13.7    999.0   0.00  
  60   19:30    0.0    49   93.1     9    123.7    11.9    999.0   0.00  
  60   19:40    0.0    49   92.6     8    139.0    11.9    999.0   0.00  
  60   19:50    0.0    49   90.9     8    168.8    10.2    999.0   0.00  
  60   20:00    0.0    49   92.5     8    193.2    10.2    999.0   0.00  
  60   20:10    0.0    49   92.1     5    184.4     8.4    999.0   0.00  
  60   20:20    1.0    49   91.5     6    187.2     8.4    999.0   0.00  
  60   20:30    6.0    49   92.0     7    187.9     9.0    999.0   0.00  
  60   20:40    6.0    49   92.2     6    201.8     7.8    999.0   0.00  
  60   20:50    6.0    49   91.1     6    195.1     7.2    999.0   0.00  
  60   21:00    6.0    49   90.7     5    191.5     6.6    999.0   0.00  
  60   21:10    6.0    49   91.6     5    184.4     7.2    999.0   0.00  
  60   21:20    6.0    49   92.0     6    192.0     6.6    999.0   0.00  
  60   21:30    6.0    49   92.1     6    189.0     7.8    999.0   0.00  
  60   21:40    6.0    49   92.7     7    185.4     9.0    999.0   0.00  
  60   21:50    6.0    49   92.6     5    196.6     6.6    999.0   0.00  
  60   22:00    6.0    49   91.1     5    198.2     6.6    999.0   0.00  
  60   22:10    6.0    50   88.6     2    217.9     3.0    999.0   0.00  
  60   22:20    6.0    49   88.9     2    225.1     3.0    999.0   0.00  
  60   22:30    6.0    50   88.4     3    242.5     3.6    999.0   0.00  
  60   22:40    6.0    50   88.3     1    247.0     3.0    999.0   0.00  
  60   22:50    6.0    49   89.8     3    212.4     7.8    999.0   0.00  
  60   23:00    6.0    49   88.7     7    210.6    10.2    999.0   0.00  
  60   23:10    6.0    49   88.1     7    219.4    10.2    999.0   0.00  
  60   23:20    6.0    50   84.2     6    222.6     9.0    999.0   0.00  
  60   23:30    6.0    49   84.2     6    222.5     7.2    999.0   0.00  
  60   23:40    4.0    49   82.8     6    241.1    10.2    999.0   0.00  
  60   23:50    6.0    48   87.0    10    237.3    13.1    999.0   0.00  
  61    0:00    5.0    48   85.8     8    237.6    11.3    999.0   0.00  
  61    0:10    5.0    47   87.0    10    237.2    14.3    999.0   0.00  
  61    0:20    6.0    47   89.4    10    211.4    13.1    999.0   0.00  
  61    0:30    4.0    47   87.3     8    224.0    10.2    999.0   0.00  
  61    0:40    3.0    47   86.8    10    229.0    11.3    999.0   0.00  
  61    0:50    1.0    47   87.1    11    224.3    13.7    999.0   0.00  
  61    1:00    0.0    48   84.7    11    225.6    11.9    999.0   0.00  
  61    1:10    0.0    46   89.2    13    228.3    17.3    999.0   0.00  
  61    1:20    0.0    47   88.9    16    229.9    19.7    999.0   0.00  
  61    1:30    6.0    47   89.1    13    241.1    16.7    999.0   0.00  
  61    1:40    6.0    47   87.0    12    224.2    13.7    999.0   0.00  
  61    1:50    6.0    47   87.3    10    223.2    13.1    999.0   0.00  
  61    2:00    6.0    47   88.3     9    220.6    10.2    999.0   0.00  
  61    2:10    6.0    47   87.4    10    220.6    10.8    999.0   0.00  
  61    2:20    6.0    47   85.9    11    214.2    11.9    999.0   0.00  
  61    2:30    6.0    47   85.0    10    210.4    11.3    999.0   0.00  
  61    2:40    4.0    47   85.5     9    207.1    10.2    999.0   0.00  
  61    2:50    3.0    47   85.3     9    222.7    10.8    999.0   0.00  
  61    3:00    2.0    47   85.3     8    227.9     9.6    999.0   0.00  
  61    3:10    2.0    46   86.5     9    235.8    10.2    999.0   0.00  
  61    3:20    2.0    46   87.1    10    234.9    11.3    999.0   0.00  
  61    3:30    0.0    46   85.3     9    243.1    11.9    999.0   0.00  
  61    3:40    0.0    46   83.4    10    248.5    11.3    999.0   0.00  
  61    3:50    0.0    47   79.9    10    251.9    12.5    999.0   0.00  
  61    4:00    0.0    47   81.1     8    241.5    11.9    999.0   0.00  
  61    4:10    0.0    47   80.8     9    239.5    10.8    999.0   0.00  
  61    4:20    0.0    47   81.4    10    245.3    10.8    999.0   0.00  
  61    4:30    0.0    47   80.3     8    242.4    10.2    999.0   0.00  
  61    4:40    0.0    47   81.0     9    240.7    10.2    999.0   0.00  
  61    4:50    0.0    47   81.0     9    239.6     9.6    999.0   0.00  
  61    5:00    0.0    47   81.4     8    235.9     9.6    999.0   0.00  
  61    5:10    0.0    47   82.1     8    235.5     9.6    999.0   0.00  
  61    5:20    0.0    47   83.2     9    230.1    10.2    999.0   0.00  
  61    5:30    0.0    47   84.1     9    229.7    10.2    999.0   0.00  
  61    5:40    0.0    47   85.3     9    231.1    10.8    999.0   0.00  
  61    5:50    0.0    47   86.2     9    222.7    10.2    999.0   0.00  
  61    6:00    0.0    47   87.2     8    207.2    10.2    999.0   0.00  
  61    6:10    0.0    47   88.3     9    213.3    10.2    999.0   0.00  
  61    6:20    1.0    47   89.0     8    210.4     9.0    999.0   0.00  
  61    6:30    6.0    47   89.3     7    201.8     8.4    999.0   0.00  
  61    6:40    9.0    47   89.0     8    197.8    10.2    999.0   0.00  
  61    6:50   17.0    47   89.3     8    196.5    10.2    999.0   0.00  
  61    7:00   52.0    47   89.0     7    191.9    10.8    999.0   0.00  
  61    7:10   99.0    48   87.7     6    182.3     9.0    999.0   0.00  
  61    7:20  137.0    50   85.9     4    172.4     8.4    999.0   0.00  
  61    7:30  138.0    51   85.1     5    138.6     9.0    999.0   0.00  
  61    7:40   97.0    50   85.4     4    165.5     7.2    999.0   0.00  
  61    7:50   73.0    50   85.7     3    182.3     7.2    999.0   0.00  
  61    8:00   88.0    49   86.3     6    211.2     9.0    999.0   0.00  
  61    8:10  335.0    50   84.5     7    219.3    10.8    999.0   0.00  
  61    8:20  295.0    51   84.1     7    215.0    10.8    999.0   0.00  
  61    8:30  115.0    50   85.4     8    247.0    14.3    999.0   0.00  
  61    8:40  121.0    49   85.2    10    251.3    13.7    999.0   0.00  
  61    8:50   88.0    49   83.9     8    228.2    11.3    999.0   0.00  
  61    9:00   33.0    49   83.6     6    216.3     9.0    999.0   0.00  
  61    9:10   26.0    48   83.5     9    224.7    10.8    999.0   0.00  
  61    9:20   29.0    48   84.4     9    230.8    10.2    999.0   0.00  
  61    9:30   23.0    48   87.0     7    197.0    11.9    999.0   0.02  
  61    9:40   32.0    46   87.3    10    159.1    16.7    999.0   0.14  
  61    9:50   56.0    46   89.2     7    232.2    11.3    999.0   0.00  
  61   10:00   62.0    46   89.6     9    240.4    11.9    999.0   0.00  
  61   10:10   40.0    46   89.3    14    288.9    24.5    999.0   0.02  
  61   10:20   99.0    45   87.6    16    284.9    21.5    999.0   0.01  
  61   10:30  169.0    46   84.7    14    269.1    17.9    999.0   0.00  
  61   10:40  222.0    47   84.3     9    277.2    13.1    999.0   0.00  
  61   10:50  131.0    48   85.4     2    216.0     5.4    999.0   0.00  
  61   11:00   83.0    48   85.9     4    179.0     6.0    999.0   0.00  
  61   11:10  100.0    48   85.7     6    206.3     7.8    999.0   0.00  
  61   11:20  643.0    50   87.9     2    171.1     5.4    999.0   0.00  
  61   11:30  486.0    51   86.6     2    125.8     6.0    999.0   0.00  
  61   11:40  153.0    50   86.1     3    236.8     7.2    999.0   0.00  

Return to Whitleys Peak graphs page.


Western Regional Climate Center,wrcc@dri.edu